Time;durP1;ratioP1;P1;durP2;ratioP2;P2;SDS_P1;SDS_P2;PMS_P1;PMS_P2;Temp;Humidity;BMP_temperature;BMP_pressure;BME280_temperature;BME280_humidity;BME280_pressure;Samples;Min_cycle;Max_cycle;Signal;HPM_P1;HPM_P2
2023/10/02 00:01:36;;;;;;;22.55;12.07;;;;;;;13.20;96.24;101324.38;5113054;28;20408;-69
2023/10/02 00:04:41;;;;;;;26.35;11.40;;;;;;;13.11;96.97;101322.19;5113018;28;20159;-69
2023/10/02 00:07:45;;;;;;;21.15;10.65;;;;;;;13.05;97.06;101333.03;5112822;28;20101;-69
2023/10/02 00:10:49;;;;;;;26.92;12.10;;;;;;;12.99;97.44;101321.06;5112974;28;20042;-69
2023/10/02 00:14:18;;;;;;;20.23;10.90;;;;;;;12.96;97.68;101320.34;5113035;28;20078;-69
2023/10/02 00:17:15;;;;;;;22.45;11.23;;;;;;;13.03;96.85;101322.59;5112959;28;20510;-69
2023/10/02 00:20:21;;;;;;;22.02;11.18;;;;;;;13.08;96.87;101325.00;5112893;28;20502;-69
2023/10/02 00:23:25;;;;;;;23.70;11.65;;;;;;;13.09;96.94;101326.69;5112798;28;20564;-69
2023/10/02 00:26:28;;;;;;;19.38;11.18;;;;;;;13.12;96.89;101328.31;5112829;28;20511;-70
2023/10/02 00:29:32;;;;;;;18.42;10.57;;;;;;;13.16;96.44;101324.59;5112636;28;20042;-69
2023/10/02 00:32:40;;;;;;;24.67;10.80;;;;;;;13.08;96.69;101325.00;5112813;28;20422;-70
2023/10/02 00:35:50;;;;;;;19.08;10.57;;;;;;;13.18;96.27;101331.50;5112737;28;20415;-69
2023/10/02 00:38:53;;;;;;;18.10;9.82;;;;;;;13.04;97.14;101328.69;5111863;28;20415;-69
2023/10/02 00:45:23;;;;;;;21.65;9.88;;;;;;;12.98;98.00;101319.34;5112027;28;20047;-69
2023/10/02 00:48:30;;;;;;;21.77;11.20;;;;;;;12.98;97.77;101315.88;5112402;28;20055;-69
2023/10/02 00:51:33;;;;;;;17.85;10.57;;;;;;;12.98;97.43;101318.50;5114530;28;20108;-69
2023/10/02 00:54:36;;;;;;;20.15;10.98;;;;;;;12.95;97.50;101313.38;5116201;28;20046;-69
2023/10/02 00:57:42;;;;;;;22.08;10.32;;;;;;;12.94;97.32;101314.31;5115439;28;20507;-69
2023/10/02 01:00:53;;;;;;;18.15;9.57;;;;;;;12.87;97.01;101311.16;5116270;28;20074;-69
2023/10/02 01:04:09;;;;;;;33.22;9.57;;;;;;;12.79;97.36;101313.28;5115592;28;20065;-69
2023/10/02 01:07:15;;;;;;;18.67;9.80;;;;;;;12.75;97.81;101311.75;5115281;28;20042;-69
2023/10/02 01:10:19;;;;;;;15.43;9.55;;;;;;;12.78;97.62;101311.59;5115978;28;20533;-69
2023/10/02 01:13:30;;;;;;;15.75;9.10;;;;;;;12.79;97.49;101319.41;5115109;28;20038;-69
2023/10/02 01:16:36;;;;;;;12.43;9.05;;;;;;;12.80;97.35;101315.00;5115980;28;20096;-69
2023/10/02 01:19:54;;;;;;;14.25;8.30;;;;;;;12.75;96.90;101324.88;5116115;28;20046;-69
2023/10/02 01:23:11;;;;;;;10.43;7.20;;;;;;;12.71;96.83;101321.56;5115993;28;20481;-69
2023/10/02 01:26:18;;;;;;;12.80;7.35;;;;;;;12.73;96.71;101313.59;5115709;28;20501;-69
2023/10/02 01:29:22;;;;;;;10.45;7.38;;;;;;;12.70;97.03;101314.63;5115607;28;20053;-69
2023/10/02 01:32:26;;;;;;;15.60;9.32;;;;;;;12.70;97.02;101308.50;5114753;28;20051;-69
2023/10/02 01:35:29;;;;;;;18.33;9.98;;;;;;;12.67;97.26;101309.50;5115812;28;20054;-69
2023/10/02 01:38:37;;;;;;;15.35;9.57;;;;;;;12.65;96.73;101311.34;5114730;28;20034;-69
2023/10/02 01:41:48;;;;;;;18.48;9.15;;;;;;;12.68;96.51;101311.19;5115371;28;20073;-69
2023/10/02 01:44:55;;;;;;;17.98;9.57;;;;;;;12.71;95.97;101305.81;5115409;28;20046;-69
2023/10/02 01:47:58;;;;;;;21.02;9.40;;;;;;;12.68;95.76;101305.94;5114982;28;20116;-69
2023/10/02 01:51:25;;;;;;;16.75;10.23;;;;;;;12.71;95.79;101313.69;5114392;28;20051;-69
2023/10/02 01:54:29;;;;;;;17.80;9.10;;;;;;;12.59;96.12;101305.56;5115199;28;20101;-69
2023/10/02 01:57:34;;;;;;;20.23;10.38;;;;;;;12.57;96.70;101302.97;5115080;28;20104;-69
2023/10/02 02:00:38;;;;;;;15.15;9.57;;;;;;;12.69;96.08;101302.41;5114221;28;20043;-69
2023/10/02 02:03:46;;;;;;;19.98;10.10;;;;;;;12.65;96.49;101305.25;5114976;28;20046;-69
2023/10/02 02:06:51;;;;;;;16.77;9.88;;;;;;;12.55;97.15;101294.34;5114064;28;20050;-69
2023/10/02 02:09:54;;;;;;;14.82;9.70;;;;;;;12.61;97.11;101294.06;5114092;28;20543;-69
2023/10/02 02:12:58;;;;;;;14.95;9.23;;;;;;;12.58;96.92;101299.47;5114059;28;20038;-69
2023/10/02 02:16:07;;;;;;;21.67;10.00;;;;;;;12.48;97.35;101291.19;5113933;28;20415;-69
2023/10/02 02:19:12;;;;;;;17.58;9.23;;;;;;;12.44;97.90;101292.22;5113936;28;20053;-69
2023/10/02 02:22:23;;;;;;;20.98;7.65;;;;;;;12.46;97.24;101289.56;5113820;28;20047;-69
2023/10/02 02:25:28;;;;;;;14.35;7.65;;;;;;;12.40;97.83;101297.72;5113773;28;20843;-69
2023/10/02 02:28:43;;;;;;;14.60;7.65;;;;;;;12.45;97.62;101299.19;5114472;28;20399;-69
2023/10/02 02:31:46;;;;;;;9.95;6.85;;;;;;;12.47;97.26;101292.09;5113676;28;20096;-69
2023/10/02 02:35:00;;;;;;;12.15;6.78;;;;;;;12.43;97.60;101294.94;5114724;28;20057;-69
2023/10/02 02:38:04;;;;;;;13.95;7.38;;;;;;;12.50;97.56;101298.97;5114289;28;20042;-69
2023/10/02 02:41:07;;;;;;;13.20;7.78;;;;;;;12.43;97.87;101301.03;5114248;28;20458;-69
2023/10/02 02:44:36;;;;;;;14.13;8.07;;;;;;;12.43;97.18;101308.91;5113415;28;20100;-69
2023/10/02 02:47:51;;;;;;;16.42;8.73;;;;;;;12.38;97.51;101300.41;5113949;28;20112;-69
2023/10/02 02:50:54;;;;;;;19.33;9.13;;;;;;;12.33;97.97;101298.00;5113152;28;20077;-69
2023/10/02 02:53:58;;;;;;;12.57;7.53;;;;;;;12.35;97.70;101295.31;5113023;28;20088;-69
2023/10/02 02:57:01;;;;;;;16.50;8.93;;;;;;;12.32;97.97;101288.44;5113915;28;20089;-69
2023/10/02 03:03:41;;;;;;;14.30;9.38;;;;;;;12.40;97.56;101289.84;5113857;28;20046;-69
2023/10/02 03:06:44;;;;;;;16.80;8.45;;;;;;;12.37;97.12;101284.75;5113758;28;20096;-69
2023/10/02 03:09:47;;;;;;;13.88;8.52;;;;;;;12.37;96.94;101284.75;5113727;28;20097;-69
2023/10/02 03:12:51;;;;;;;12.73;7.97;;;;;;;12.38;96.63;101286.44;5113502;28;20046;-69
2023/10/02 03:15:54;;;;;;;13.98;8.18;;;;;;;12.30;96.96;101290.28;5113640;28;20512;-69
2023/10/02 03:19:03;;;;;;;11.27;7.55;;;;;;;12.27;97.20;101290.41;5113579;28;20398;-69
2023/10/02 03:22:08;;;;;;;14.60;7.75;;;;;;;12.26;96.86;101291.34;5113561;28;20042;-69
2023/10/02 03:28:34;;;;;;;11.63;7.03;;;;;;;12.21;96.74;101285.47;5113393;28;20528;-69
2023/10/02 03:31:51;;;;;;;16.95;7.63;;;;;;;12.24;96.30;101287.94;5113651;28;20058;-69
2023/10/02 03:35:02;;;;;;;11.63;8.20;;;;;;;12.23;96.10;101288.88;5113270;28;20042;-69
2023/10/02 03:38:05;;;;;;;11.35;5.82;;;;;;;12.21;96.32;101288.09;5113557;28;20510;-69
2023/10/02 03:41:10;;;;;;;10.23;7.13;;;;;;;12.13;96.13;101292.84;5113183;28;20046;-69
2023/10/02 03:44:14;;;;;;;10.10;6.30;;;;;;;12.18;96.13;101290.84;5113090;28;20042;-69
2023/10/02 03:47:18;;;;;;;;;;;;;;;12.14;96.26;101291.06;5113436;28;20050;-69
2023/10/02 03:50:24;;;;;;;10.43;5.75;;;;;;;12.14;96.36;101289.28;5113069;28;19934;-69
2023/10/02 03:53:30;;;;;;;9.63;6.80;;;;;;;12.12;96.60;101285.88;5113014;28;20100;-69
2023/10/02 03:56:42;;;;;;;11.63;7.50;;;;;;;12.21;96.34;101289.84;5112963;28;20403;-69
2023/10/02 03:59:52;;;;;;;11.20;7.47;;;;;;;12.12;96.61;101285.03;5113086;28;20058;-69
2023/10/02 04:02:57;;;;;;;13.50;6.75;;;;;;;12.18;96.37;101272.50;5113001;28;20078;-69
2023/10/02 04:06:05;;;;;;;9.82;6.50;;;;;;;12.22;95.70;101271.44;5112973;28;20046;-69
2023/10/02 04:10:00;;;;;;;12.77;7.88;;;;;;;12.11;95.85;101263.22;5112939;28;20072;-69
2023/10/02 04:13:03;;;;;;;12.13;7.15;;;;;;;12.05;96.11;101266.97;5113087;28;20093;-69
2023/10/02 04:19:28;;;;;;;15.48;8.95;;;;;;;11.99;95.71;101272.50;5112867;28;20120;-69
2023/10/02 04:22:35;;;;;;;;;;;;;;;12.00;95.85;101276.00;5113275;28;20460;-69
2023/10/02 04:25:39;;;;;;;10.38;7.30;;;;;;;12.05;95.13;101274.00;5115036;28;19998;-69
2023/10/02 04:28:54;;;;;;;9.50;6.75;;;;;;;12.04;95.21;101269.69;5116758;28;20042;-69
2023/10/02 04:32:18;;;;;;;9.40;6.38;;;;;;;12.02;95.23;101268.88;5116212;28;20081;-69
2023/10/02 04:38:49;;;;;;;16.50;6.65;;;;;;;11.98;95.89;101264.72;5116590;28;20097;-67
2023/10/02 04:42:09;;;;;;;11.27;6.95;;;;;;;11.91;95.73;101277.25;5116572;28;20042;-67
2023/10/02 04:45:25;;;;;;;16.13;6.75;;;;;;;11.82;96.40;101273.25;5116503;28;20082;-68
2023/10/02 04:48:39;;;;;;;10.68;6.75;;;;;;;11.76;96.73;101273.53;5116063;28;20059;-68
2023/10/02 04:51:46;;;;;;;10.43;6.55;;;;;;;11.69;96.18;101279.97;5116521;28;20067;-68
2023/10/02 04:55:06;;;;;;;12.10;5.65;;;;;;;11.74;95.76;101269.25;5116159;28;20163;-68
2023/10/02 04:58:19;;;;;;;8.88;5.75;;;;;;;11.76;95.65;101286.63;5116326;28;20159;-67
2023/10/02 05:01:41;;;;;;;8.95;5.72;;;;;;;11.71;95.16;101286.00;5116061;28;20072;-67
2023/10/02 05:04:44;;;;;;;13.15;6.88;;;;;;;11.81;94.91;101275.94;5116176;28;20096;-67
2023/10/02 05:07:47;;;;;;;9.77;5.68;;;;;;;11.78;94.71;101276.09;5115492;28;20526;-68
2023/10/02 05:11:04;;;;;;;11.25;6.20;;;;;;;11.73;94.77;101284.13;5116020;28;20126;-68
2023/10/02 05:14:09;;;;;;;13.23;6.35;;;;;;;11.73;94.60;101273.66;5116241;28;20185;-68
2023/10/02 05:20:47;;;;;;;7.97;5.43;;;;;;;11.63;95.13;101272.38;5115824;28;20127;-68
2023/10/02 05:24:00;;;;;;;8.52;5.68;;;;;;;11.71;94.03;101270.28;5115810;28;20100;-69
2023/10/02 05:27:04;;;;;;;9.93;5.18;;;;;;;11.68;94.37;101275.66;5115530;28;20096;-68
2023/10/02 05:30:17;;;;;;;9.27;5.85;;;;;;;11.69;94.82;101274.72;5114508;28;20042;-68
2023/10/02 05:33:37;;;;;;;8.52;5.45;;;;;;;11.72;94.92;101265.88;5113925;28;20042;-69
2023/10/02 05:44:25;;;;;;;10.20;5.70;;;;;;;11.69;94.45;101281.75;5113712;28;20482;-68
2023/10/02 05:47:29;;;;;;;10.13;5.60;;;;;;;11.68;94.58;101288.75;5112832;28;20051;-68
2023/10/02 05:50:33;;;;;;;;;;;;;;;11.68;94.23;101280.91;5114126;28;20086;-68
2023/10/02 05:53:37;;;;;;;11.55;5.72;;;;;;;11.57;94.93;101285.75;5113463;28;19919;-68
2023/10/02 05:56:41;;;;;;;9.35;5.40;;;;;;;11.56;95.39;101281.44;5113537;28;20039;-68
2023/10/02 05:59:48;;;;;;;12.43;6.53;;;;;;;11.50;96.67;101279.09;5113358;28;20070;-67
2023/10/02 06:02:59;;;;;;;9.38;6.22;;;;;;;11.59;95.61;101286.53;5113436;28;20122;-67
2023/10/02 06:06:15;;;;;;;10.43;6.35;;;;;;;11.58;95.08;101290.06;5113448;28;20043;-68
2023/10/02 06:09:20;;;;;;;12.27;6.68;;;;;;;11.50;95.27;101286.94;5113483;28;20073;-68
2023/10/02 06:12:26;;;;;;;11.10;6.78;;;;;;;11.57;95.92;101289.22;5113205;28;20062;-67
2023/10/02 06:15:48;;;;;;;10.27;6.32;;;;;;;11.59;95.53;101290.00;5113145;28;20460;-67
2023/10/02 06:19:00;;;;;;;13.48;7.00;;;;;;;11.63;95.26;101282.84;5113295;28;20038;-67
2023/10/02 06:22:06;;;;;;;11.43;6.50;;;;;;;11.71;94.80;101291.25;5112796;28;20465;-68
2023/10/02 06:25:17;;;;;;;9.95;6.43;;;;;;;11.73;94.35;101289.38;5112154;28;20074;-68
2023/10/02 06:28:27;;;;;;;14.90;6.82;;;;;;;11.66;94.49;101290.59;5112805;28;20050;-68
2023/10/02 06:31:41;;;;;;;13.95;6.47;;;;;;;11.74;94.12;101285.84;5112766;28;20512;-67
2023/10/02 06:34:47;;;;;;;9.38;6.03;;;;;;;11.82;93.79;101288.97;5112943;28;20046;-66
2023/10/02 06:37:52;;;;;;;11.88;6.95;;;;;;;11.88;94.38;101289.66;5112675;28;20487;-67
2023/10/02 06:40:56;;;;;;;8.88;5.60;;;;;;;11.92;94.65;101297.28;5112546;28;20085;-67
2023/10/02 06:44:14;;;;;;;14.38;7.63;;;;;;;11.93;94.37;101301.59;5112452;28;20114;-66
2023/10/02 06:47:29;;;;;;;10.90;6.95;;;;;;;11.93;95.13;101292.91;5112019;28;20055;-67
2023/10/02 06:50:34;;;;;;;9.80;5.75;;;;;;;11.96;95.04;101293.59;5112232;28;20147;-67
2023/10/02 06:53:40;;;;;;;9.90;6.43;;;;;;;11.92;94.70;101297.28;5112417;28;20176;-68
2023/10/02 06:56:45;;;;;;;13.20;7.05;;;;;;;11.93;94.73;101300.75;5112545;28;20403;-68
2023/10/02 06:59:51;;;;;;;14.32;7.65;;;;;;;11.81;96.35;101297.75;5112513;28;20043;-67
2023/10/02 07:02:58;;;;;;;16.60;8.32;;;;;;;11.88;97.26;101295.75;5112123;28;20172;-67
2023/10/02 07:06:07;;;;;;;14.95;9.40;;;;;;;12.01;97.44;101293.41;5112089;28;20415;-68
2023/10/02 07:09:10;;;;;;;14.35;8.65;;;;;;;12.17;97.14;101302.25;5112162;28;20092;-68
2023/10/02 07:12:14;;;;;;;14.88;8.75;;;;;;;12.16;97.05;101303.19;5111859;28;20046;-68
2023/10/02 07:15:22;;;;;;;13.35;8.50;;;;;;;12.23;97.27;101307.22;5112017;28;20057;-68
2023/10/02 07:18:46;;;;;;;13.75;8.15;;;;;;;12.07;97.60;101298.38;5111931;28;20046;-69
2023/10/02 07:21:50;;;;;;;10.63;7.55;;;;;;;12.22;96.52;101302.03;5111797;28;20104;-69
2023/10/02 07:24:57;;;;;;;11.60;7.88;;;;;;;12.29;96.76;101306.94;5111814;28;20097;-69
2023/10/02 07:28:00;;;;;;;11.80;8.20;;;;;;;12.12;97.66;101306.00;5111584;28;20042;-68
2023/10/02 07:31:03;;;;;;;;;;;;;;;12.20;98.45;101304.75;5112351;28;20057;-68
2023/10/02 07:34:08;;;;;;;11.25;8.25;;;;;;;12.40;97.99;101310.81;5111672;28;20281;-68
2023/10/02 07:37:13;;;;;;;9.48;7.13;;;;;;;12.49;97.46;101307.78;5111623;28;20552;-68
2023/10/02 07:40:16;;;;;;;9.80;7.07;;;;;;;12.63;96.91;101302.69;5111794;28;20542;-67
2023/10/02 07:43:20;;;;;;;10.30;6.43;;;;;;;12.75;96.58;101304.72;5112979;28;20047;-68
2023/10/02 07:46:28;;;;;;;9.13;6.05;;;;;;;12.85;96.32;101302.50;5112505;28;20042;-68
2023/10/02 07:49:32;;;;;;;7.55;5.65;;;;;;;12.93;95.66;101310.00;5112270;28;20054;-68
2023/10/02 07:52:38;;;;;;;8.13;6.05;;;;;;;12.95;95.69;101308.97;5112299;28;20074;-69
2023/10/02 07:55:47;;;;;;;8.32;6.05;;;;;;;13.06;96.08;101308.47;5111540;28;20096;-69
2023/10/02 07:59:00;;;;;;;8.30;5.93;;;;;;;13.17;95.93;101303.50;5111648;28;20050;-68
2023/10/02 08:02:23;;;;;;;8.13;5.72;;;;;;;13.14;95.69;101298.41;5110584;28;20112;-69
2023/10/02 08:05:28;;;;;;;7.50;5.15;;;;;;;13.20;95.29;101298.09;5112085;28;20171;-69
2023/10/02 08:08:33;;;;;;;8.05;5.72;;;;;;;13.06;96.53;101302.38;5110674;28;20069;-69
2023/10/02 08:11:49;;;;;;;9.98;6.07;;;;;;;13.16;96.07;101299.19;5111410;28;20126;-69
2023/10/02 08:15:27;;;;;;;7.32;5.53;;;;;;;13.14;96.60;101298.41;5111592;28;20051;-70
2023/10/02 08:19:10;;;;;;;7.72;5.95;;;;;;;13.21;97.73;101297.19;5111332;28;20050;-69
2023/10/02 08:22:06;;;;;;;10.10;6.47;;;;;;;13.03;98.29;101301.59;5110506;28;20092;-69
2023/10/02 08:25:16;;;;;;;8.60;6.07;;;;;;;13.03;99.22;101296.34;5111096;28;20062;-69
2023/10/02 08:28:23;;;;;;;8.10;5.75;;;;;;;13.23;100.00;101299.72;5110641;28;20058;-69
2023/10/02 08:31:32;;;;;;;5.38;4.10;;;;;;;13.36;100.00;101290.31;5111807;28;20042;-68
2023/10/02 08:34:37;;;;;;;7.43;4.75;;;;;;;13.46;100.00;101286.31;5110656;28;20180;-71
2023/10/02 08:37:41;;;;;;;8.35;5.13;;;;;;;13.58;100.00;101294.47;5112257;28;20042;-70
2023/10/02 08:40:44;;;;;;;7.53;5.47;;;;;;;13.55;100.00;101290.22;5111625;28;20126;-69
2023/10/02 08:43:53;;;;;;;7.13;4.70;;;;;;;13.70;100.00;101286.78;5099458;28;20119;-68
2023/10/02 08:47:00;;;;;;;6.82;4.53;;;;;;;13.78;99.71;101277.63;5110263;28;20537;-69
2023/10/02 08:50:27;;;;;;;7.82;5.20;;;;;;;13.92;100.00;101280.38;5111496;28;20046;-73
2023/10/02 08:53:33;;;;;;;7.05;3.97;;;;;;;14.07;97.82;101276.91;5112013;28;20513;-68
2023/10/02 08:56:44;;;;;;;8.43;5.07;;;;;;;14.15;97.30;101269.44;5111339;28;20538;-69
2023/10/02 08:59:53;;;;;;;9.13;5.80;;;;;;;14.19;99.16;101268.31;5111288;28;20092;-68
2023/10/02 09:03:11;;;;;;;7.90;5.28;;;;;;;14.20;99.01;101266.56;5110858;28;20047;-68
2023/10/02 09:06:35;;;;;;;9.18;5.85;;;;;;;14.31;98.45;101255.44;5111005;28;20073;-68
2023/10/02 09:09:45;;;;;;;9.98;6.40;;;;;;;14.41;98.34;101256.59;5110537;28;20108;-68
2023/10/02 09:13:15;;;;;;;9.82;6.45;;;;;;;14.56;98.44;101255.78;5113122;28;20119;-68
2023/10/02 09:16:29;;;;;;;11.20;7.25;;;;;;;14.71;97.63;101261.06;5114728;28;20149;-69
2023/10/02 09:19:37;;;;;;;11.13;6.78;;;;;;;14.85;96.74;101246.19;5114479;28;20034;-69
2023/10/02 09:22:41;;;;;;;11.48;6.50;;;;;;;14.98;96.61;101246.31;5114296;28;20165;-69
2023/10/02 09:26:16;;;;;;;12.48;6.95;;;;;;;15.07;96.67;101243.13;5114248;28;20407;-68
2023/10/02 09:29:21;;;;;;;9.77;6.43;;;;;;;15.26;97.64;101239.41;5113989;28;20169;-68
2023/10/02 09:32:25;;;;;;;11.00;7.07;;;;;;;15.39;97.16;101237.72;5114234;28;20063;-69
2023/10/02 09:35:32;;;;;;;13.55;8.35;;;;;;;15.50;96.21;101235.25;5113968;28;20078;-69
2023/10/02 09:38:37;;;;;;;12.65;7.70;;;;;;;15.66;96.84;101227.25;5114219;28;20050;-69
2023/10/02 09:41:40;;;;;;;12.07;7.22;;;;;;;15.76;95.68;101223.13;5113998;28;20051;-69
2023/10/02 09:44:46;;;;;;;13.85;7.55;;;;;;;15.89;94.16;101217.06;5114039;28;20563;-69
2023/10/02 09:47:49;;;;;;;13.10;8.38;;;;;;;15.95;92.85;101211.41;5113443;28;20135;-68
2023/10/02 09:50:54;;;;;;;13.90;8.18;;;;;;;16.07;93.22;101207.13;5113688;28;20070;-68
2023/10/02 09:54:08;;;;;;;12.05;7.82;;;;;;;16.13;92.55;101204.09;5113425;28;20038;-68
2023/10/02 09:57:25;;;;;;;13.70;8.60;;;;;;;16.25;89.58;101198.03;5113535;28;20045;-68
2023/10/02 10:00:34;;;;;;;13.88;8.40;;;;;;;16.32;90.59;101193.19;5113579;28;20051;-68
2023/10/02 10:03:48;;;;;;;12.70;8.40;;;;;;;16.46;90.77;101198.41;5113710;28;20116;-68
2023/10/02 10:07:07;;;;;;;17.88;9.48;;;;;;;16.51;88.90;101189.25;5113391;28;20506;-68
2023/10/02 10:10:52;;;;;;;15.65;8.07;;;;;;;16.58;89.74;101180.91;5112406;28;20101;-68
2023/10/02 10:13:59;;;;;;;14.60;8.85;;;;;;;16.80;90.77;101177.69;5113259;28;20538;-68
2023/10/02 10:17:13;;;;;;;15.98;9.00;;;;;;;17.11;90.99;101168.53;5113245;28;20088;-69
2023/10/02 10:20:19;;;;;;;14.02;8.65;;;;;;;17.36;88.96;101171.13;5113268;28;20046;-68
2023/10/02 10:23:31;;;;;;;15.50;8.60;;;;;;;17.52;87.88;101170.06;5113133;28;20115;-69
2023/10/02 10:26:42;;;;;;;12.45;8.10;;;;;;;17.58;86.55;101159.00;5113050;28;20530;-68
2023/10/02 10:30:09;;;;;;;12.27;8.60;;;;;;;17.78;86.01;101155.00;5112904;28;20459;-68
2023/10/02 10:36:39;;;;;;;14.52;8.60;;;;;;;17.89;85.76;101153.22;5113516;28;20055;-78
2023/10/02 10:39:54;;;;;;;13.23;8.93;;;;;;;17.98;85.27;101148.25;5113366;28;20046;-78
2023/10/02 10:42:59;;;;;;;14.75;8.35;;;;;;;18.12;87.42;101142.75;5113120;28;20051;-78
2023/10/02 10:46:12;;;;;;;13.65;8.95;;;;;;;18.22;86.98;101140.28;5113135;28;20043;-78
2023/10/02 10:49:24;;;;;;;12.93;8.90;;;;;;;18.31;86.56;101137.81;5112955;28;20185;-78
2023/10/02 10:52:36;;;;;;;15.43;8.60;;;;;;;18.53;86.58;101136.16;5112090;28;20050;-78
2023/10/02 10:55:42;;;;;;;15.50;9.20;;;;;;;18.65;89.83;101132.59;5112847;28;20046;-78
2023/10/02 10:59:10;;;;;;;14.68;8.80;;;;;;;18.81;88.03;101137.59;5112887;28;20510;-78
2023/10/02 11:02:15;;;;;;;13.52;8.88;;;;;;;19.14;86.63;101131.44;5112850;28;20050;-78
2023/10/02 11:05:23;;;;;;;13.30;9.07;;;;;;;19.33;85.38;101130.84;5113152;28;20046;-80
2023/10/02 11:08:30;;;;;;;15.18;9.27;;;;;;;19.46;85.30;101120.09;5113049;28;20452;-80
2023/10/02 11:11:48;;;;;;;14.95;8.98;;;;;;;19.71;84.50;101122.47;5112761;28;20055;-78
2023/10/02 11:14:51;;;;;;;18.42;9.95;;;;;;;19.83;85.06;101123.31;5112976;28;20399;-78
2023/10/02 11:18:20;;;;;;;14.98;7.85;;;;;;;19.90;82.16;101113.84;5112488;28;20062;-63
2023/10/02 11:21:24;;;;;;;13.32;8.93;;;;;;;20.12;84.49;101112.09;5112915;28;20054;-80
2023/10/02 11:24:29;;;;;;;15.90;9.40;;;;;;;20.18;85.70;101104.44;5112461;28;20411;-80
2023/10/02 11:27:34;;;;;;;14.00;8.10;;;;;;;20.36;85.60;101103.91;5112502;28;20047;-77
2023/10/02 11:30:37;;;;;;;15.30;9.05;;;;;;;20.36;84.95;101098.59;5112533;28;20468;-81
2023/10/02 11:33:41;;;;;;;13.85;8.80;;;;;;;20.64;82.92;101081.16;5112322;28;20046;-81
2023/10/02 11:36:52;;;;;;;13.85;9.30;;;;;;;20.71;83.47;101081.47;5112281;28;20332;-82
2023/10/02 11:39:57;;;;;;;14.65;8.75;;;;;;;20.81;80.85;101075.22;5112185;28;20046;-77
2023/10/02 11:43:00;;;;;;;12.75;8.70;;;;;;;20.85;81.80;101059.84;5112367;28;20406;-73
2023/10/02 11:46:03;;;;;;;13.85;8.32;;;;;;;20.97;80.89;101056.13;5112004;28;20045;-72
2023/10/02 11:49:07;;;;;;;12.30;8.73;;;;;;;21.05;79.92;101053.63;5111850;28;20047;-59
2023/10/02 11:52:12;;;;;;;21.45;8.88;;;;;;;20.97;79.08;101045.50;5111970;28;20047;-59
2023/10/02 11:55:18;;;;;;;12.57;8.60;;;;;;;21.07;79.13;101046.38;5111818;28;20039;-60
2023/10/02 11:58:22;;;;;;;11.73;8.45;;;;;;;21.17;80.73;101041.06;5112538;28;20092;-81
2023/10/02 12:01:26;;;;;;;15.98;9.23;;;;;;;21.28;82.59;101033.00;5112214;28;20112;-78
2023/10/02 12:04:34;;;;;;;14.18;8.70;;;;;;;21.45;81.68;101036.81;5112183;28;20486;-78
2023/10/02 12:07:39;;;;;;;14.30;9.57;;;;;;;21.66;79.51;101027.84;5112088;28;20050;-81
2023/10/02 12:10:44;;;;;;;13.50;7.97;;;;;;;21.91;78.93;101029.94;5112494;28;20042;-82
2023/10/02 12:13:48;;;;;;;12.32;8.40;;;;;;;21.99;79.44;101024.78;5112380;28;20455;-81
2023/10/02 12:17:00;;;;;;;15.15;8.93;;;;;;;22.04;78.65;101025.16;5112097;28;20051;-83
2023/10/02 12:20:10;;;;;;;15.02;8.52;;;;;;;22.14;77.88;101019.00;5112134;28;20054;-83
2023/10/02 12:23:20;;;;;;;17.17;9.55;;;;;;;22.31;75.60;101012.97;5112052;28;20043;-83
2023/10/02 12:26:25;;;;;;;16.30;9.45;;;;;;;22.47;75.65;101005.19;5099545;28;20163;-83
2023/10/02 12:34:01;;;;;;;15.40;9.57;;;;;;;23.17;73.54;100996.75;5111848;28;20046;-82
2023/10/02 12:37:06;;;;;;;15.85;9.35;;;;;;;23.41;71.73;100994.31;5112083;28;20407;-82
2023/10/02 12:40:18;;;;;;;16.30;9.23;;;;;;;23.67;70.99;100983.72;5112002;28;20462;-82
2023/10/02 12:43:39;;;;;;;12.93;9.05;;;;;;;23.89;70.21;100976.22;5112332;28;20452;-83
2023/10/02 12:46:43;;;;;;;12.73;8.63;;;;;;;24.27;68.61;100964.28;5112220;28;20461;-84
2023/10/02 12:49:48;;;;;;;15.57;9.85;;;;;;;24.83;63.98;100954.88;5115651;28;20089;-83
2023/10/02 12:52:52;;;;;;;15.45;9.38;;;;;;;25.30;63.30;100953.47;5115658;28;20050;-83
2023/10/02 12:55:55;;;;;;;14.07;9.18;;;;;;;25.71;61.90;100953.47;5115650;28;20051;-82
2023/10/02 12:59:24;;;;;;;13.02;9.57;;;;;;;26.43;59.03;100945.50;5115071;28;20047;-83
2023/10/02 13:02:28;;;;;;;12.93;9.30;;;;;;;27.78;55.07;100943.34;5115797;28;20518;-83
2023/10/02 13:10:59;;;;;;;12.95;8.52;;;;;;;33.39;39.88;100915.63;5092415;28;20519;-82
2023/10/02 13:14:03;;;;;;;14.77;9.93;;;;;;;34.82;36.38;100911.78;5092486;28;20101;-83
2023/10/02 13:17:07;;;;;;;11.48;8.73;;;;;;;35.01;36.13;100909.00;5092080;28;20074;-76
2023/10/02 13:20:13;;;;;;;11.18;8.50;;;;;;;33.88;37.49;100904.97;5092190;28;20058;-81
2023/10/02 13:23:17;;;;;;;13.85;9.65;;;;;;;33.24;38.78;100907.81;5092335;28;20486;-82
2023/10/02 13:26:21;;;;;;;15.63;9.05;;;;;;;33.17;38.78;100908.91;5092341;28;20077;-72
2023/10/02 13:29:25;;;;;;;12.63;8.55;;;;;;;33.28;36.89;100898.22;5091826;28;20426;-68
2023/10/02 13:32:29;;;;;;;15.93;9.00;;;;;;;32.13;38.51;100897.31;5091882;28;20530;-65
2023/10/02 13:35:36;;;;;;;12.93;9.00;;;;;;;32.18;39.17;100894.81;5096943;28;20403;-65
2023/10/02 13:38:41;;;;;;;14.60;8.60;;;;;;;31.64;39.18;100888.66;5114477;28;20088;-65
2023/10/02 13:41:45;;;;;;;13.15;8.85;;;;;;;30.67;42.78;100891.88;5114219;28;20046;-66
2023/10/02 13:44:49;;;;;;;11.50;9.05;;;;;;;31.37;40.12;100889.75;5114291;28;20085;-64
2023/10/02 13:47:53;;;;;;;14.18;10.10;;;;;;;31.56;40.64;100897.00;5114211;28;20104;-66
2023/10/02 13:50:56;;;;;;;14.65;8.93;;;;;;;31.88;39.04;100887.22;5114835;28;20068;-67
2023/10/02 13:54:01;;;;;;;13.43;9.18;;;;;;;30.46;41.37;100888.28;5114401;28;20042;-65
2023/10/02 13:57:06;;;;;;;14.52;10.05;;;;;;;28.57;46.54;100894.41;5114351;28;20113;-65
2023/10/02 14:00:10;;;;;;;13.30;10.15;;;;;;;28.77;46.15;100884.69;5114265;28;20165;-66
2023/10/02 14:03:14;;;;;;;14.68;9.43;;;;;;;29.16;45.34;100883.44;5114127;28;20502;-65
2023/10/02 14:06:19;;;;;;;15.25;10.50;;;;;;;29.62;44.35;100877.63;5114099;28;20071;-64
2023/10/02 14:09:24;;;;;;;19.27;10.27;;;;;;;31.45;40.92;100876.84;5112734;28;20049;-66
2023/10/02 14:12:27;;;;;;;20.90;10.05;;;;;;;32.09;38.73;100869.88;5111904;28;20130;-66
2023/10/02 14:15:32;;;;;;;13.93;10.15;;;;;;;33.26;36.50;100864.25;5113388;28;20407;-66
2023/10/02 14:18:37;;;;;;;16.80;10.93;;;;;;;34.72;34.52;100860.75;5113786;28;20134;-81
2023/10/02 14:21:41;;;;;;;21.60;10.68;;;;;;;33.88;35.35;100861.56;5101546;28;20130;-64
2023/10/02 14:24:44;;;;;;;19.85;10.63;;;;;;;32.50;39.11;100855.16;5113615;28;20524;-60
2023/10/02 14:27:49;;;;;;;14.52;10.98;;;;;;;35.08;34.39;100867.09;5113634;28;20043;-60
2023/10/02 14:30:55;;;;;;;15.50;9.95;;;;;;;33.17;36.99;100852.84;5113429;28;20070;-60
2023/10/02 14:34:00;;;;;;;19.95;10.82;;;;;;;33.65;35.98;100856.81;5113982;28;20109;-61
2023/10/02 14:37:05;;;;;;;12.35;9.63;;;;;;;32.99;36.71;100855.47;5113474;28;20054;-60
2023/10/02 14:40:19;;;;;;;14.13;10.25;;;;;;;31.72;39.07;100857.91;5113637;28;20043;-61
2023/10/02 14:43:23;;;;;;;16.40;11.05;;;;;;;31.95;39.26;100850.16;5113309;28;20082;-61
2023/10/02 14:46:27;;;;;;;15.00;10.82;;;;;;;32.47;38.08;100842.06;5113251;28;20505;-61
2023/10/02 14:49:32;;;;;;;18.30;12.15;;;;;;;33.03;37.38;100845.88;5113275;28;20079;-61
2023/10/02 14:52:36;;;;;;;17.23;12.15;;;;;;;32.95;37.39;100836.09;5113188;28;20460;-61
2023/10/02 14:55:45;;;;;;;15.63;11.25;;;;;;;31.46;40.01;100839.84;5112193;28;20073;-61
2023/10/02 14:58:48;;;;;;;15.90;12.48;;;;;;;30.69;41.46;100839.34;5111997;28;20043;-60
2023/10/02 15:01:54;;;;;;;17.83;11.75;;;;;;;30.35;41.77;100835.75;5113139;28;20414;-61
2023/10/02 15:04:58;;;;;;;19.55;12.18;;;;;;;29.24;44.50;100837.53;5113112;28;20538;-61
2023/10/02 15:08:02;;;;;;;17.60;11.93;;;;;;;27.93;48.24;100836.69;5113154;28;20186;-61
2023/10/02 15:11:06;;;;;;;16.30;12.02;;;;;;;27.40;49.29;100838.56;5112343;28;20085;-62